Capitol Logistics 293




KDEN
Denver International Airport
Denver, Colorado
KRFD
Chicago/Rockford International Airport
Rockford, Illinois

Activity Log

Date Flight Route Aircraft Duration
No Flights Yet

Route Details

Aircraft Information
Primary: Boeing 767-300BDSF
Backup: Boeing 757-200SF
Route Data
Distance: 719nm
Duration: 1h 39m
Recm'd Route: EEONS7 WYNDM HCT LNK J146 IOW RFD
Origin Wx: KDEN 180153Z 01007KT 10SM BKN070 BKN140 03/M06 A3018 RMK AO2 SLP224 T00331056
Dest. Wx: KRFD 180154Z 00000KT 10SM BKN250 11/M01 A2997 RMK AO2 SLP151 T01061011
Notes: